createdAt,value
2017-11-29T00:02:01.467Z,4.00
2017-11-29T00:04:29.856Z,4.00
2017-11-29T00:06:58.227Z,4.00
2017-11-29T00:09:27.092Z,4.00
2017-11-29T00:11:55.478Z,3.90
2017-11-29T00:14:23.845Z,3.90
2017-11-29T00:16:52.627Z,3.80
2017-11-29T00:19:20.987Z,3.80
2017-11-29T00:21:49.361Z,3.80
2017-11-29T00:24:17.956Z,3.70
2017-11-29T00:26:46.323Z,3.80
2017-11-29T00:29:14.694Z,3.80
2017-11-29T00:31:43.191Z,3.80
2017-11-29T00:34:11.557Z,3.70
2017-11-29T00:36:39.940Z,3.70
2017-11-29T00:39:08.370Z,3.70
2017-11-29T00:41:36.755Z,3.70
2017-11-29T00:44:05.134Z,3.60
2017-11-29T00:46:34.191Z,3.70
2017-11-29T00:49:02.561Z,3.70
2017-11-29T00:51:30.955Z,3.80
2017-11-29T00:54:00.258Z,3.80
2017-11-29T00:56:28.640Z,3.80
2017-11-29T00:58:57.024Z,3.80
2017-11-29T01:01:25.711Z,3.80
2017-11-29T01:03:54.088Z,3.80
2017-11-29T01:06:22.469Z,3.80
2017-11-29T01:08:51.034Z,3.80
2017-11-29T01:11:19.400Z,3.80
2017-11-29T01:13:47.772Z,3.70
2017-11-29T01:16:16.472Z,3.80
2017-11-29T01:18:44.846Z,3.70
2017-11-29T01:21:13.225Z,3.80
2017-11-29T01:23:41.647Z,3.80
2017-11-29T01:26:10.810Z,3.80
2017-11-29T01:28:39.172Z,3.80
2017-11-29T01:31:07.577Z,3.80
2017-11-29T01:33:35.940Z,3.70
2017-11-29T01:36:04.319Z,3.70
2017-11-29T01:38:32.851Z,3.70
2017-11-29T01:41:02.035Z,3.70
2017-11-29T01:43:30.403Z,3.70
2017-11-29T01:45:58.841Z,3.70
2017-11-29T01:48:27.248Z,3.60
2017-11-29T01:50:55.668Z,3.70
2017-11-29T01:53:25.114Z,3.60
2017-11-29T01:55:53.480Z,3.60
2017-11-29T01:58:21.858Z,3.60
2017-11-29T02:00:50.488Z,3.60
2017-11-29T02:03:18.865Z,3.60
2017-11-29T02:05:47.238Z,3.60
2017-11-29T02:08:15.756Z,3.60
2017-11-29T02:10:44.119Z,3.60
2017-11-29T02:13:12.510Z,3.70
2017-11-29T02:15:41.666Z,3.80
2017-11-29T02:18:10.040Z,3.80
2017-11-29T02:20:38.418Z,3.70
2017-11-29T02:23:06.918Z,3.70
2017-11-29T02:25:35.292Z,3.70
2017-11-29T02:28:03.684Z,3.70
2017-11-29T02:30:32.271Z,3.70
2017-11-29T02:33:00.711Z,3.60
2017-11-29T02:35:29.092Z,3.60
2017-11-29T02:37:57.662Z,3.60
2017-11-29T02:40:43.763Z,3.70
2017-11-29T02:43:12.293Z,3.70
2017-11-29T02:45:40.664Z,3.60
2017-11-29T02:48:09.051Z,3.60
2017-11-29T02:50:38.365Z,3.70
2017-11-29T02:53:06.739Z,3.70
2017-11-29T02:55:35.932Z,3.70
2017-11-29T02:58:04.508Z,3.60
2017-11-29T03:00:32.944Z,3.70
2017-11-29T03:03:01.327Z,3.70
2017-11-29T03:05:29.834Z,3.70
2017-11-29T03:07:58.201Z,3.70
2017-11-29T03:10:26.593Z,3.60
2017-11-29T03:12:55.243Z,3.60
2017-11-29T03:15:23.639Z,3.70
2017-11-29T03:17:52.064Z,3.70
2017-11-29T03:20:21.328Z,3.80
2017-11-29T03:22:49.720Z,3.80
2017-11-29T03:25:18.083Z,3.80
2017-11-29T03:27:46.589Z,3.90
2017-11-29T03:30:15.725Z,3.90
2017-11-29T03:32:44.095Z,3.80
2017-11-29T03:35:12.904Z,3.90
2017-11-29T03:37:41.311Z,4.00
2017-11-29T03:40:09.678Z,3.90
2017-11-29T03:42:38.372Z,3.80
2017-11-29T03:45:06.797Z,3.80
2017-11-29T03:47:35.223Z,3.70
2017-11-29T03:50:03.778Z,3.70
2017-11-29T03:52:32.143Z,3.70
2017-11-29T03:55:00.522Z,3.90
2017-11-29T03:57:29.131Z,3.80
2017-11-29T03:59:57.495Z,3.90
2017-11-29T04:02:25.864Z,3.80
2017-11-29T04:04:54.470Z,3.80
2017-11-29T04:07:22.871Z,3.70
2017-11-29T04:09:51.253Z,3.70
2017-11-29T04:12:19.678Z,3.80
2017-11-29T04:14:48.119Z,3.80
2017-11-29T04:17:16.516Z,3.80
2017-11-29T04:19:45.895Z,3.70
2017-11-29T04:22:14.359Z,3.70
2017-11-29T04:24:42.732Z,3.70
2017-11-29T04:27:11.175Z,3.80
2017-11-29T04:29:39.559Z,3.70
2017-11-29T04:32:07.918Z,3.80
2017-11-29T04:34:37.263Z,3.90
2017-11-29T04:37:06.408Z,3.90
2017-11-29T04:39:35.553Z,3.90
2017-11-29T04:42:04.100Z,3.90
2017-11-29T04:44:32.882Z,3.90
2017-11-29T04:47:02.025Z,4.00
2017-11-29T04:49:30.536Z,4.00
2017-11-29T04:51:58.920Z,4.00
2017-11-29T04:54:28.134Z,3.80
2017-11-29T04:56:56.861Z,3.70
2017-11-29T04:59:25.228Z,3.70
2017-11-29T05:01:53.600Z,3.80
2017-11-29T05:04:22.027Z,3.80
2017-11-29T05:06:50.420Z,3.80
2017-11-29T05:09:18.819Z,3.70
2017-11-29T05:11:47.323Z,3.70
2017-11-29T05:14:15.711Z,3.80
2017-11-29T05:16:44.116Z,3.90
2017-11-29T05:19:12.547Z,3.80
2017-11-29T05:21:40.935Z,3.80
2017-11-29T05:24:09.353Z,3.70
2017-11-29T05:26:38.123Z,3.70
2017-11-29T05:29:06.524Z,3.70
2017-11-29T05:31:34.903Z,3.70
2017-11-29T05:34:03.352Z,3.70
2017-11-29T05:36:31.780Z,3.80
2017-11-29T05:39:00.155Z,3.90
2017-11-29T05:41:28.904Z,3.80
2017-11-29T05:43:57.283Z,3.90
2017-11-29T05:46:25.679Z,3.90
2017-11-29T05:48:54.130Z,3.90
2017-11-29T05:51:22.519Z,3.90
2017-11-29T05:53:51.398Z,3.90
2017-11-29T05:56:19.828Z,3.90
2017-11-29T05:58:48.985Z,3.80
2017-11-29T06:01:17.364Z,3.80
2017-11-29T06:03:45.944Z,3.80
2017-11-29T06:06:14.376Z,3.70
2017-11-29T06:08:43.553Z,3.70
2017-11-29T06:11:12.239Z,3.70
2017-11-29T06:13:40.617Z,3.70
2017-11-29T06:16:09.007Z,3.60
2017-11-29T06:18:37.521Z,3.60
2017-11-29T06:21:05.902Z,3.50
2017-11-29T06:23:34.320Z,3.60
2017-11-29T06:26:02.985Z,3.60
2017-11-29T06:28:31.420Z,3.70
2017-11-29T06:31:00.572Z,3.70
2017-11-29T06:33:29.243Z,3.70
2017-11-29T06:35:57.639Z,3.80
2017-11-29T06:38:26.011Z,3.90
2017-11-29T06:40:54.910Z,4.00
2017-11-29T06:43:23.304Z,4.00
2017-11-29T06:45:51.670Z,4.10
2017-11-29T06:48:20.187Z,4.10
2017-11-29T06:50:49.327Z,3.90
2017-11-29T06:53:17.706Z,3.90
2017-11-29T06:55:46.402Z,3.90
2017-11-29T06:58:14.804Z,3.80
2017-11-29T07:00:43.186Z,3.90
2017-11-29T07:03:11.896Z,3.90
2017-11-29T07:05:40.271Z,3.90
2017-11-29T07:08:09.442Z,4.00
2017-11-29T07:10:37.892Z,4.00
2017-11-29T07:13:06.433Z,4.00
2017-11-29T07:15:34.842Z,4.00
2017-11-29T07:18:03.353Z,4.00
2017-11-29T07:20:31.729Z,4.10
2017-11-29T07:23:00.131Z,4.20
2017-11-29T07:25:28.597Z,4.50
2017-11-29T07:27:57.006Z,4.70
2017-11-29T07:30:26.172Z,4.80
2017-11-29T07:32:54.772Z,4.80
2017-11-29T07:35:23.192Z,4.90
2017-11-29T07:37:51.596Z,4.90
2017-11-29T07:40:20.654Z,4.90
2017-11-29T07:42:49.036Z,4.70
2017-11-29T07:45:17.402Z,4.90
2017-11-29T07:47:45.951Z,5.00
2017-11-29T07:50:14.353Z,4.90
2017-11-29T07:52:43.504Z,5.10
2017-11-29T07:55:12.141Z,5.10
2017-11-29T07:57:41.271Z,5.20
2017-11-29T08:00:10.104Z,5.20
2017-11-29T08:02:38.623Z,5.20
2017-11-29T08:05:07.009Z,5.20
2017-11-29T08:07:35.380Z,5.10
2017-11-29T08:10:03.909Z,5.10
2017-11-29T08:12:32.293Z,5.10
2017-11-29T08:15:00.709Z,5.30
2017-11-29T08:17:29.443Z,5.40
2017-11-29T08:19:57.876Z,5.30
2017-11-29T08:22:26.252Z,5.40
2017-11-29T08:24:54.673Z,5.40
2017-11-29T08:27:23.048Z,5.30
2017-11-29T08:29:51.422Z,5.30
2017-11-29T08:32:19.951Z,5.20
2017-11-29T08:34:49.131Z,5.20
2017-11-29T08:37:17.505Z,5.20
2017-11-29T08:39:46.017Z,5.10
2017-11-29T08:42:15.169Z,5.30
2017-11-29T08:44:43.610Z,5.30
2017-11-29T08:47:12.245Z,5.50
2017-11-29T08:49:40.678Z,5.40
2017-11-29T08:52:09.061Z,5.20
2017-11-29T08:54:37.741Z,5.00
2017-11-29T08:57:06.121Z,5.30
2017-11-29T08:59:34.506Z,5.40
2017-11-29T09:02:03.210Z,5.30
2017-11-29T09:04:31.593Z,5.20
2017-11-29T09:07:00.001Z,5.10
2017-11-29T09:09:28.666Z,5.20
2017-11-29T09:11:57.052Z,5.20
2017-11-29T09:14:25.466Z,5.40
2017-11-29T09:16:54.763Z,5.30
2017-11-29T09:19:23.247Z,5.30
2017-11-29T09:21:52.476Z,5.30
2017-11-29T09:24:21.055Z,5.30
2017-11-29T09:26:49.507Z,5.10
2017-11-29T09:29:18.718Z,5.00
2017-11-29T09:31:47.288Z,5.00
2017-11-29T09:34:15.729Z,5.10
2017-11-29T09:36:44.160Z,5.10
2017-11-29T09:39:13.482Z,5.20
2017-11-29T09:41:41.876Z,5.20
2017-11-29T09:44:10.356Z,5.60
2017-11-29T09:46:38.904Z,5.80
2017-11-29T09:49:07.373Z,5.90
2017-11-29T09:51:35.762Z,6.10
2017-11-29T09:54:04.590Z,6.10
2017-11-29T09:56:33.001Z,6.20
2017-11-29T09:59:01.370Z,6.60
2017-11-29T10:01:29.975Z,7.00
2017-11-29T10:03:59.187Z,7.40
2017-11-29T10:06:28.339Z,7.90
2017-11-29T10:08:56.893Z,7.90
2017-11-29T10:11:25.301Z,8.10
2017-11-29T10:13:53.768Z,8.00
2017-11-29T10:16:23.107Z,7.80
2017-11-29T10:18:51.504Z,7.80
2017-11-29T10:21:19.939Z,7.40
2017-11-29T10:23:48.555Z,7.00
2017-11-29T10:26:17.730Z,6.90
2017-11-29T10:28:46.150Z,6.90
2017-11-29T10:31:14.591Z,6.80
2017-11-29T10:33:42.992Z,6.90
2017-11-29T10:36:12.179Z,6.60
2017-11-29T10:38:40.943Z,6.60
2017-11-29T10:41:09.416Z,6.50
2017-11-29T10:43:37.832Z,6.30
2017-11-29T10:46:07.463Z,6.50
2017-11-29T10:48:35.861Z,6.50
2017-11-29T10:51:04.252Z,6.60
2017-11-29T10:53:32.709Z,6.50
2017-11-29T10:56:01.117Z,6.60
2017-11-29T10:58:29.537Z,6.60
2017-11-29T11:00:58.184Z,6.60
2017-11-29T11:03:26.601Z,6.40
2017-11-29T11:05:55.101Z,6.40
2017-11-29T11:08:23.593Z,6.40
2017-11-29T11:10:52.059Z,6.40
2017-11-29T11:13:21.282Z,6.50
2017-11-29T11:15:49.867Z,6.50
2017-11-29T11:18:18.311Z,6.50
2017-11-29T11:20:47.461Z,6.40
2017-11-29T11:23:16.348Z,6.30
2017-11-29T11:25:44.716Z,6.30
2017-11-29T11:28:13.119Z,6.30
2017-11-29T11:30:41.976Z,6.10
2017-11-29T11:33:10.486Z,6.00
2017-11-29T11:35:38.913Z,5.90
2017-11-29T11:38:07.532Z,5.90
2017-11-29T11:40:35.930Z,5.80
2017-11-29T11:43:04.378Z,5.90
2017-11-29T11:45:32.879Z,6.00
2017-11-29T11:48:01.356Z,6.20
2017-11-29T11:50:29.747Z,6.10
2017-11-29T11:52:58.287Z,6.10
2017-11-29T11:55:26.684Z,6.00
2017-11-29T11:57:55.124Z,6.10
2017-11-29T12:00:24.470Z,6.10
2017-11-29T12:02:52.903Z,6.00
2017-11-29T12:05:21.338Z,6.00
2017-11-29T12:07:49.926Z,5.90
2017-11-29T12:10:18.310Z,5.80
2017-11-29T12:12:46.700Z,5.90
2017-11-29T12:15:15.591Z,6.10
2017-11-29T12:17:44.834Z,6.30
2017-11-29T12:20:13.231Z,6.30
2017-11-29T12:22:41.856Z,6.10
2017-11-29T12:25:10.292Z,6.20
2017-11-29T12:27:38.691Z,6.30
2017-11-29T12:30:07.164Z,6.20
2017-11-29T12:32:35.553Z,6.30
2017-11-29T12:35:03.959Z,6.30
2017-11-29T12:37:32.831Z,6.40
2017-11-29T12:40:01.256Z,6.40
2017-11-29T12:42:29.677Z,6.50
2017-11-29T12:44:59.217Z,6.50
2017-11-29T12:47:27.670Z,6.50
2017-11-29T12:50:14.559Z,6.40
2017-11-29T12:52:43.919Z,6.20
2017-11-29T12:55:13.410Z,6.10
2017-11-29T12:57:41.940Z,6.10
2017-11-29T13:00:10.477Z,6.10
2017-11-29T13:02:38.882Z,6.40
2017-11-29T13:05:07.716Z,6.30
2017-11-29T13:07:36.192Z,6.10
2017-11-29T13:10:04.585Z,6.10
2017-11-29T13:12:33.379Z,6.00
2017-11-29T13:15:01.798Z,6.10
2017-11-29T13:17:30.421Z,6.30
2017-11-29T13:19:58.991Z,6.40
2017-11-29T13:22:27.404Z,6.40
2017-11-29T13:24:55.894Z,6.50
2017-11-29T13:27:24.575Z,6.30
2017-11-29T13:29:53.125Z,6.30
2017-11-29T13:32:21.548Z,6.20
2017-11-29T13:34:50.295Z,6.10
2017-11-29T13:37:18.776Z,6.10
2017-11-29T13:39:47.161Z,6.00
2017-11-29T13:42:15.849Z,5.90
2017-11-29T13:44:44.325Z,5.90
2017-11-29T13:47:12.745Z,5.90
2017-11-29T13:49:42.109Z,6.00
2017-11-29T13:52:10.519Z,6.00
2017-11-29T13:54:38.907Z,6.10
2017-11-29T13:57:07.671Z,5.90
2017-11-29T13:59:36.070Z,6.00
2017-11-29T14:02:04.539Z,5.90
2017-11-29T14:04:33.285Z,5.90
2017-11-29T14:07:01.684Z,5.80
2017-11-29T14:09:30.114Z,5.70
2017-11-29T14:11:58.548Z,5.60
2017-11-29T14:14:26.999Z,5.60
2017-11-29T14:16:55.479Z,5.70
2017-11-29T14:19:24.302Z,5.70
2017-11-29T14:21:52.746Z,5.70
2017-11-29T14:24:21.156Z,5.90
2017-11-29T14:26:51.042Z,5.70
2017-11-29T14:29:19.544Z,5.70
2017-11-29T14:31:47.950Z,5.80
2017-11-29T14:34:16.844Z,5.60
2017-11-29T14:36:46.092Z,5.80
2017-11-29T14:39:14.633Z,5.80
2017-11-29T14:41:44.398Z,5.70
2017-11-29T14:44:12.836Z,5.70
2017-11-29T14:46:42.214Z,5.50
2017-11-29T14:49:11.134Z,5.50
2017-11-29T14:51:39.513Z,5.50
2017-11-29T14:54:08.028Z,5.40
2017-11-29T14:56:36.593Z,5.30
2017-11-29T14:59:05.022Z,5.30
2017-11-29T15:01:33.545Z,5.30
2017-11-29T15:04:02.000Z,5.30
2017-11-29T15:06:31.177Z,5.20
2017-11-29T15:08:59.685Z,5.20
2017-11-29T15:11:28.289Z,5.10
2017-11-29T15:13:56.749Z,5.10
2017-11-29T15:16:26.072Z,5.10
2017-11-29T15:18:54.519Z,5.10
2017-11-29T15:21:22.953Z,5.00
2017-11-29T15:23:51.336Z,4.90
2017-11-29T15:26:19.780Z,4.90
2017-11-29T15:28:48.266Z,4.90
2017-11-29T15:31:16.678Z,5.00
2017-11-29T15:33:45.364Z,5.00
2017-11-29T15:36:13.839Z,5.00
2017-11-29T15:38:42.270Z,5.00
2017-11-29T15:41:11.824Z,5.10
2017-11-29T15:43:40.224Z,5.10
2017-11-29T15:46:09.367Z,5.10
2017-11-29T15:48:38.104Z,5.10
2017-11-29T15:51:06.505Z,5.00
2017-11-29T15:53:34.894Z,4.90
2017-11-29T15:56:04.580Z,5.00
2017-11-29T15:58:33.094Z,4.90
2017-11-29T16:01:01.494Z,4.90
2017-11-29T16:03:30.215Z,4.90
2017-11-29T16:05:58.669Z,5.10
2017-11-29T16:08:27.074Z,5.20
2017-11-29T16:10:55.947Z,5.10
2017-11-29T16:13:24.403Z,5.20
2017-11-29T16:15:52.840Z,5.10
2017-11-29T16:18:21.452Z,5.00
2017-11-29T16:20:49.826Z,5.00
2017-11-29T16:23:18.995Z,5.00
2017-11-29T16:25:47.629Z,5.00
2017-11-29T16:28:16.060Z,4.90
2017-11-29T16:30:44.509Z,4.90
2017-11-29T16:33:13.324Z,5.00
2017-11-29T16:35:41.700Z,4.80
2017-11-29T16:38:10.102Z,4.70
2017-11-29T16:40:38.745Z,4.60
2017-11-29T16:43:07.145Z,4.60
2017-11-29T16:45:35.601Z,4.60
2017-11-29T16:48:04.224Z,4.60
2017-11-29T16:50:32.630Z,4.70
2017-11-29T16:53:01.038Z,4.80
2017-11-29T16:55:30.040Z,4.90
2017-11-29T16:57:58.474Z,5.00
2017-11-29T17:00:26.898Z,5.00
2017-11-29T17:02:55.454Z,4.90
2017-11-29T17:05:24.042Z,4.70
2017-11-29T17:07:52.709Z,4.60
2017-11-29T17:10:21.609Z,4.60
2017-11-29T17:12:50.541Z,4.60
2017-11-29T17:15:19.469Z,4.60
2017-11-29T17:17:48.587Z,4.30
2017-11-29T17:20:17.819Z,4.30
2017-11-29T17:22:46.322Z,4.20
2017-11-29T17:25:16.014Z,4.10
2017-11-29T17:27:44.482Z,4.10
2017-11-29T17:30:13.453Z,4.10
2017-11-29T17:32:43.728Z,4.10
2017-11-29T17:35:12.343Z,4.00
2017-11-29T17:37:41.522Z,4.20
2017-11-29T17:40:10.079Z,4.20
2017-11-29T17:42:38.567Z,4.10
2017-11-29T17:45:07.217Z,4.10
2017-11-29T17:47:36.068Z,3.90
2017-11-29T17:50:05.547Z,3.90
2017-11-29T17:52:34.084Z,3.90
2017-11-29T17:55:02.918Z,3.90
2017-11-29T17:57:31.498Z,3.90
2017-11-29T17:59:59.939Z,3.90
2017-11-29T18:02:28.957Z,4.00
2017-11-29T18:04:57.515Z,4.10
2017-11-29T18:07:25.988Z,4.10
2017-11-29T18:09:54.885Z,4.00
2017-11-29T18:12:23.392Z,3.90
2017-11-29T18:14:52.257Z,4.00
2017-11-29T18:17:20.710Z,4.00
2017-11-29T18:19:50.106Z,4.00
2017-11-29T18:22:18.829Z,4.00
2017-11-29T18:24:47.643Z,4.00
2017-11-29T18:27:16.232Z,4.10
2017-11-29T18:29:44.985Z,4.20
2017-11-29T18:32:13.521Z,4.10
2017-11-29T18:34:42.007Z,4.10
2017-11-29T18:37:10.448Z,4.20
2017-11-29T18:39:39.096Z,4.20
2017-11-29T18:42:07.820Z,4.30
2017-11-29T18:44:36.265Z,4.30
2017-11-29T18:47:05.039Z,4.30
2017-11-29T18:49:33.540Z,4.40
2017-11-29T18:52:02.031Z,4.40
2017-11-29T18:54:30.905Z,4.50
2017-11-29T18:56:59.377Z,4.40
2017-11-29T18:59:28.174Z,4.50
2017-11-29T19:01:56.752Z,4.50
2017-11-29T19:04:25.194Z,4.50
2017-11-29T19:06:53.641Z,4.40
2017-11-29T19:09:22.602Z,4.30
2017-11-29T19:11:51.109Z,4.10
2017-11-29T19:14:19.614Z,4.00
2017-11-29T19:16:48.558Z,4.00
2017-11-29T19:19:17.307Z,4.10
2017-11-29T19:21:45.720Z,4.20
2017-11-29T19:24:14.697Z,4.20
2017-11-29T19:26:43.869Z,3.90
2017-11-29T19:29:13.391Z,4.00
2017-11-29T19:31:42.472Z,4.00
2017-11-29T19:34:11.299Z,4.00
2017-11-29T19:36:40.384Z,3.80
2017-11-29T19:39:09.746Z,3.80
2017-11-29T19:41:39.410Z,3.70
2017-11-29T19:44:08.146Z,3.70
2017-11-29T19:46:37.482Z,3.60
2017-11-29T19:49:06.470Z,3.80
2017-11-29T19:51:35.060Z,3.80
2017-11-29T19:54:04.425Z,3.80
2017-11-29T19:56:33.324Z,3.80
2017-11-29T19:59:02.313Z,3.70
2017-11-29T20:01:30.937Z,3.60
2017-11-29T20:03:59.548Z,3.60
2017-11-29T20:06:28.654Z,3.50
2017-11-29T20:08:58.762Z,3.50
2017-11-29T20:11:28.080Z,3.50
2017-11-29T20:13:56.880Z,3.50
2017-11-29T20:16:25.782Z,3.60
2017-11-29T20:18:54.299Z,3.50
2017-11-29T20:21:23.177Z,3.40
2017-11-29T20:23:51.805Z,3.40
2017-11-29T20:26:21.539Z,3.40
2017-11-29T20:28:50.327Z,3.30
2017-11-29T20:31:19.717Z,3.20
2017-11-29T20:33:49.433Z,3.30
2017-11-29T20:36:19.137Z,3.40
2017-11-29T20:38:48.165Z,3.30
2017-11-29T20:41:16.957Z,3.40
2017-11-29T20:43:45.765Z,3.60
2017-11-29T20:46:14.772Z,3.60
2017-11-29T20:48:43.656Z,3.60
2017-11-29T20:51:12.703Z,3.60
2017-11-29T20:53:41.256Z,3.60
2017-11-29T20:56:10.078Z,3.60
2017-11-29T20:58:40.192Z,3.50
2017-11-29T21:01:09.069Z,3.50
2017-11-29T21:03:38.822Z,3.60
2017-11-29T21:06:08.076Z,3.60
2017-11-29T21:08:37.018Z,3.60
2017-11-29T21:11:05.936Z,3.60
2017-11-29T21:13:34.907Z,3.60
2017-11-29T21:16:03.341Z,3.50
2017-11-29T21:18:31.816Z,3.40
2017-11-29T21:21:00.519Z,3.40
2017-11-29T21:23:29.516Z,3.40
2017-11-29T21:25:58.380Z,3.40
2017-11-29T21:28:27.340Z,3.50
2017-11-29T21:30:55.910Z,3.50
2017-11-29T21:33:24.897Z,3.50
2017-11-29T21:35:53.473Z,3.50
2017-11-29T21:38:21.937Z,3.60
2017-11-29T21:40:50.756Z,3.60
2017-11-29T21:43:19.510Z,3.50
2017-11-29T21:45:48.806Z,3.50
2017-11-29T21:48:17.694Z,3.50
2017-11-29T21:50:46.523Z,3.50
2017-11-29T21:53:15.084Z,3.40
2017-11-29T21:55:43.540Z,3.30
2017-11-29T21:58:12.676Z,3.40
2017-11-29T22:00:41.401Z,3.50
2017-11-29T22:03:09.794Z,3.40
2017-11-29T22:05:38.816Z,3.40
2017-11-29T22:08:07.255Z,3.40
2017-11-29T22:10:35.883Z,3.30
2017-11-29T22:13:05.364Z,3.30
2017-11-29T22:15:33.840Z,3.30
2017-11-29T22:18:03.018Z,3.30
2017-11-29T22:20:31.721Z,3.30
2017-11-29T22:23:00.131Z,3.40
2017-11-29T22:25:28.899Z,3.30
2017-11-29T22:27:58.614Z,3.20
2017-11-29T22:30:27.081Z,3.20
2017-11-29T22:32:55.564Z,3.30
2017-11-29T22:35:24.174Z,3.20
2017-11-29T22:37:53.498Z,3.20
2017-11-29T22:40:21.900Z,3.20
2017-11-29T22:42:50.675Z,3.20
2017-11-29T22:45:19.855Z,3.20
2017-11-29T22:47:48.299Z,3.20
2017-11-29T22:50:16.888Z,3.20
2017-11-29T22:52:45.285Z,3.30
2017-11-29T22:55:14.544Z,3.30
2017-11-29T22:57:43.109Z,3.30
2017-11-29T23:00:11.625Z,3.30
2017-11-29T23:02:41.021Z,3.30
2017-11-29T23:05:09.434Z,3.30
2017-11-29T23:07:38.684Z,3.20
2017-11-29T23:10:07.072Z,3.20
2017-11-29T23:12:35.887Z,3.20
2017-11-29T23:15:04.259Z,3.20
2017-11-29T23:17:32.663Z,3.20
2017-11-29T23:20:01.325Z,3.30
2017-11-29T23:22:30.516Z,3.10
2017-11-29T23:24:58.928Z,3.10
2017-11-29T23:27:27.382Z,3.10
2017-11-29T23:29:55.763Z,3.10
2017-11-29T23:32:24.909Z,2.90
2017-11-29T23:34:53.607Z,2.90
2017-11-29T23:37:21.998Z,2.90
2017-11-29T23:39:50.378Z,2.90
2017-11-29T23:42:18.926Z,2.90
2017-11-29T23:44:47.317Z,2.90
2017-11-29T23:47:15.702Z,2.80
2017-11-29T23:49:44.208Z,2.80
2017-11-29T23:52:12.596Z,2.90
2017-11-29T23:54:40.995Z,2.80
2017-11-29T23:57:10.302Z,2.50
2017-11-29T23:59:38.676Z,2.50
